sensor_id;sensor_type;location;lat;lon;timestamp;pressure;altitude;pressure_sealevel;temperature
19568;BMP280;9930;49.240;8.548;2023-12-20T00:01:16;100611.75;;;9.36
19568;BMP280;9930;49.240;8.548;2023-12-20T00:03:41;100608.34;;;9.36
19568;BMP280;9930;49.240;8.548;2023-12-20T00:06:12;100597.81;;;9.28
19568;BMP280;9930;49.240;8.548;2023-12-20T00:08:43;100604.84;;;9.34
19568;BMP280;9930;49.240;8.548;2023-12-20T00:11:11;100606.66;;;9.36
19568;BMP280;9930;49.240;8.548;2023-12-20T00:13:39;100602.38;;;9.35
19568;BMP280;9930;49.240;8.548;2023-12-20T00:16:06;100588.56;;;9.30
19568;BMP280;9930;49.240;8.548;2023-12-20T00:18:34;100599.03;;;9.36
19568;BMP280;9930;49.240;8.548;2023-12-20T00:21:01;100588.50;;;9.29
19568;BMP280;9930;49.240;8.548;2023-12-20T00:23:26;100594.72;;;9.35
19568;BMP280;9930;49.240;8.548;2023-12-20T00:25:54;100583.34;;;9.27
19568;BMP280;9930;49.240;8.548;2023-12-20T00:28:20;100600.63;;;9.34
19568;BMP280;9930;49.240;8.548;2023-12-20T00:30:46;100602.38;;;9.35
19568;BMP280;9930;49.240;8.548;2023-12-20T00:33:11;100585.94;;;9.29
19568;BMP280;9930;49.240;8.548;2023-12-20T00:35:41;100597.88;;;9.30
19568;BMP280;9930;49.240;8.548;2023-12-20T00:38:07;100605.84;;;9.37
19568;BMP280;9930;49.240;8.548;2023-12-20T00:40:35;100598.81;;;9.32
19568;BMP280;9930;49.240;8.548;2023-12-20T00:43:06;100604.19;;;9.38
19568;BMP280;9930;49.240;8.548;2023-12-20T00:45:31;100593.06;;;9.36
19568;BMP280;9930;49.240;8.548;2023-12-20T00:47:57;100604.25;;;9.39
19568;BMP280;9930;49.240;8.548;2023-12-20T00:50:24;100590.38;;;9.33
19568;BMP280;9930;49.240;8.548;2023-12-20T00:52:52;100587.84;;;9.33
19568;BMP280;9930;49.240;8.548;2023-12-20T00:55:21;100590.50;;;9.36
19568;BMP280;9930;49.240;8.548;2023-12-20T00:57:46;100587.97;;;9.36
19568;BMP280;9930;49.240;8.548;2023-12-20T01:00:16;100600.03;;;9.40
19568;BMP280;9930;49.240;8.548;2023-12-20T01:02:44;100594.13;;;9.41
19568;BMP280;9930;49.240;8.548;2023-12-20T01:05:12;100594.13;;;9.41
19568;BMP280;9930;49.240;8.548;2023-12-20T01:07:37;100600.09;;;9.41
19568;BMP280;9930;49.240;8.548;2023-12-20T01:10:04;100583.69;;;9.35
19568;BMP280;9930;49.240;8.548;2023-12-20T01:12:31;100603.50;;;9.42
19568;BMP280;9930;49.240;8.548;2023-12-20T01:14:56;100594.72;;;9.35
19568;BMP280;9930;49.240;8.548;2023-12-20T01:17:23;100597.56;;;9.41
19568;BMP280;9930;49.240;8.548;2023-12-20T01:19:51;100594.22;;;9.43
19568;BMP280;9930;49.240;8.548;2023-12-20T01:22:19;100586.56;;;9.43
19568;BMP280;9930;49.240;8.548;2023-12-20T01:24:44;100589.13;;;9.43
19568;BMP280;9930;49.240;8.548;2023-12-20T01:27:10;100571.09;;;9.38
19568;BMP280;9930;49.240;8.548;2023-12-20T01:29:38;100580.69;;;9.44
19568;BMP280;9930;49.240;8.548;2023-12-20T01:32:08;100575.38;;;9.39
19568;BMP280;9930;49.240;8.548;2023-12-20T01:34:35;100572.84;;;9.39
19568;BMP280;9930;49.240;8.548;2023-12-20T01:37:01;100571.97;;;9.38
19568;BMP280;9930;49.240;8.548;2023-12-20T01:39:28;100566.00;;;9.38
19568;BMP280;9930;49.240;8.548;2023-12-20T01:41:53;100572.22;;;9.45
19568;BMP280;9930;49.240;8.548;2023-12-20T01:44:19;100572.31;;;9.46
19568;BMP280;9930;49.240;8.548;2023-12-20T01:46:46;100575.72;;;9.47
19568;BMP280;9930;49.240;8.548;2023-12-20T01:49:14;100568.88;;;9.46
19568;BMP280;9930;49.240;8.548;2023-12-20T01:51:40;100563.59;;;9.41
19568;BMP280;9930;49.240;8.548;2023-12-20T01:54:06;100566.28;;;9.44
19568;BMP280;9930;49.240;8.548;2023-12-20T01:56:33;100568.94;;;9.47
19568;BMP280;9930;49.240;8.548;2023-12-20T01:59:01;100573.25;;;9.48
19568;BMP280;9930;49.240;8.548;2023-12-20T02:01:28;100558.63;;;9.44
19568;BMP280;9930;49.240;8.548;2023-12-20T02:03:57;100560.25;;;9.42
19568;BMP280;9930;49.240;8.548;2023-12-20T02:06:24;100566.19;;;9.43
19568;BMP280;9930;49.240;8.548;2023-12-20T02:08:54;100572.44;;;9.49
19568;BMP280;9930;49.240;8.548;2023-12-20T02:11:21;100570.03;;;9.52
19568;BMP280;9930;49.240;8.548;2023-12-20T02:13:49;100570.75;;;9.50
19568;BMP280;9930;49.240;8.548;2023-12-20T02:16:15;100578.53;;;9.53
19568;BMP280;9930;49.240;8.548;2023-12-20T02:18:43;100574.38;;;9.55
19568;BMP280;9930;49.240;8.548;2023-12-20T02:21:11;100560.50;;;9.48
19568;BMP280;9930;49.240;8.548;2023-12-20T02:23:39;100563.94;;;9.49
19568;BMP280;9930;49.240;8.548;2023-12-20T02:26:06;100563.31;;;9.54
19568;BMP280;9930;49.240;8.548;2023-12-20T02:28:39;100566.88;;;9.58
19568;BMP280;9930;49.240;8.548;2023-12-20T02:31:07;100568.34;;;9.53
19568;BMP280;9930;49.240;8.548;2023-12-20T02:33:32;100553.59;;;9.46
19568;BMP280;9930;49.240;8.548;2023-12-20T02:35:58;100563.19;;;9.51
19568;BMP280;9930;49.240;8.548;2023-12-20T02:38:26;100567.47;;;9.52
19568;BMP280;9930;49.240;8.548;2023-12-20T02:40:54;100579.69;;;9.59
19568;BMP280;9930;49.240;8.548;2023-12-20T02:43:19;100585.63;;;9.60
19568;BMP280;9930;49.240;8.548;2023-12-20T02:45:50;100579.75;;;9.61
19568;BMP280;9930;49.240;8.548;2023-12-20T02:48:15;100591.69;;;9.62
19568;BMP280;9930;49.240;8.548;2023-12-20T02:50:41;100588.19;;;9.60
19568;BMP280;9930;49.240;8.548;2023-12-20T02:53:07;100593.34;;;9.61
19568;BMP280;9930;49.240;8.548;2023-12-20T02:55:35;100586.38;;;9.57
19568;BMP280;9930;49.240;8.548;2023-12-20T02:58:01;100598.50;;;9.63
19568;BMP280;9930;49.240;8.548;2023-12-20T03:00:27;100579.81;;;9.62
19568;BMP280;9930;49.240;8.548;2023-12-20T03:02:52;100567.69;;;9.57
19568;BMP280;9930;49.240;8.548;2023-12-20T03:05:18;100570.50;;;9.63
19568;BMP280;9930;49.240;8.548;2023-12-20T03:07:46;100566.28;;;9.63
19568;BMP280;9930;49.240;8.548;2023-12-20T03:10:12;100564.28;;;9.56
19568;BMP280;9930;49.240;8.548;2023-12-20T03:12:37;100577.34;;;9.64
19568;BMP280;9930;49.240;8.548;2023-12-20T03:15:03;100559.97;;;9.55
19568;BMP280;9930;49.240;8.548;2023-12-20T03:17:29;100574.72;;;9.62
19568;BMP280;9930;49.240;8.548;2023-12-20T03:19:57;100563.47;;;9.57
19568;BMP280;9930;49.240;8.548;2023-12-20T03:22:23;100590.06;;;9.64
19568;BMP280;9930;49.240;8.548;2023-12-20T03:24:48;100580.47;;;9.58
19568;BMP280;9930;49.240;8.548;2023-12-20T03:27:14;100571.84;;;9.55
19568;BMP280;9930;49.240;8.548;2023-12-20T03:29:40;100583.16;;;9.61
19568;BMP280;9930;49.240;8.548;2023-12-20T03:32:06;100579.59;;;9.58
19568;BMP280;9930;49.240;8.548;2023-12-20T03:34:34;100589.25;;;9.65
19568;BMP280;9930;49.240;8.548;2023-12-20T03:36:59;100582.50;;;9.65
19568;BMP280;9930;49.240;8.548;2023-12-20T03:39:30;100583.44;;;9.67
19568;BMP280;9930;49.240;8.548;2023-12-20T03:41:56;100584.09;;;9.63
19568;BMP280;9930;49.240;8.548;2023-12-20T03:44:24;100567.81;;;9.60
19568;BMP280;9930;49.240;8.548;2023-12-20T03:46:51;100573.91;;;9.63
19568;BMP280;9930;49.240;8.548;2023-12-20T03:49:17;100587.72;;;9.68
19568;BMP280;9930;49.240;8.548;2023-12-20T03:51:48;100569.56;;;9.61
19568;BMP280;9930;49.240;8.548;2023-12-20T03:54:14;100579.22;;;9.68
19568;BMP280;9930;49.240;8.548;2023-12-20T03:56:39;100567.88;;;9.61
19568;BMP280;9930;49.240;8.548;2023-12-20T03:59:06;100573.03;;;9.63
19568;BMP280;9930;49.240;8.548;2023-12-20T04:01:32;100584.38;;;9.69
19568;BMP280;9930;49.240;8.548;2023-12-20T04:03:57;100584.38;;;9.69
19568;BMP280;9930;49.240;8.548;2023-12-20T04:06:25;100592.88;;;9.70
19568;BMP280;9930;49.240;8.548;2023-12-20T04:08:53;100575.66;;;9.64
19568;BMP280;9930;49.240;8.548;2023-12-20T04:11:19;100586.13;;;9.70
19568;BMP280;9930;49.240;8.548;2023-12-20T04:13:45;100579.28;;;9.69
19568;BMP280;9930;49.240;8.548;2023-12-20T04:16:10;100578.28;;;9.66
19568;BMP280;9930;49.240;8.548;2023-12-20T04:18:36;100582.56;;;9.67
19568;BMP280;9930;49.240;8.548;2023-12-20T04:21:02;100577.34;;;9.64
19568;BMP280;9930;49.240;8.548;2023-12-20T04:23:31;100599.72;;;9.71
19568;BMP280;9930;49.240;8.548;2023-12-20T04:25:57;100584.16;;;9.65
19568;BMP280;9930;49.240;8.548;2023-12-20T04:28:25;100598.84;;;9.70
19568;BMP280;9930;49.240;8.548;2023-12-20T04:30:51;100594.28;;;9.63
19568;BMP280;9930;49.240;8.548;2023-12-20T04:33:16;100590.94;;;9.64
19568;BMP280;9930;49.240;8.548;2023-12-20T04:35:42;100604.88;;;9.72
19568;BMP280;9930;49.240;8.548;2023-12-20T04:38:11;100606.56;;;9.72
19568;BMP280;9930;49.240;8.548;2023-12-20T04:40:37;100597.78;;;9.65
19568;BMP280;9930;49.240;8.548;2023-12-20T04:43:03;100616.00;;;9.74
19568;BMP280;9930;49.240;8.548;2023-12-20T04:45:28;100625.31;;;9.74
19568;BMP280;9930;49.240;8.548;2023-12-20T04:47:55;100627.06;;;9.75
19568;BMP280;9930;49.240;8.548;2023-12-20T04:50:23;100627.88;;;9.74
19568;BMP280;9930;49.240;8.548;2023-12-20T04:52:49;100617.69;;;9.74
19568;BMP280;9930;49.240;8.548;2023-12-20T04:55:15;100614.06;;;9.69
19568;BMP280;9930;49.240;8.548;2023-12-20T04:57:40;100634.72;;;9.75
19568;BMP280;9930;49.240;8.548;2023-12-20T05:00:09;100619.16;;;9.69
19568;BMP280;9930;49.240;8.548;2023-12-20T05:02:38;100627.81;;;9.72
19568;BMP280;9930;49.240;8.548;2023-12-20T05:05:05;100635.72;;;9.79
19568;BMP280;9930;49.240;8.548;2023-12-20T05:07:31;100620.09;;;9.71
19568;BMP280;9930;49.240;8.548;2023-12-20T05:09:59;100627.94;;;9.76
19568;BMP280;9930;49.240;8.548;2023-12-20T05:12:27;100637.38;;;9.78
19568;BMP280;9930;49.240;8.548;2023-12-20T05:14:57;100639.06;;;9.78
19568;BMP280;9930;49.240;8.548;2023-12-20T05:17:23;100641.63;;;9.78
19568;BMP280;9930;49.240;8.548;2023-12-20T05:19:51;100640.59;;;9.74
19568;BMP280;9930;49.240;8.548;2023-12-20T05:22:21;100644.03;;;9.74
19568;BMP280;9930;49.240;8.548;2023-12-20T05:24:49;100666.47;;;9.83
19568;BMP280;9930;49.240;8.548;2023-12-20T05:27:15;100651.72;;;9.76
19568;BMP280;9930;49.240;8.548;2023-12-20T05:29:41;100661.31;;;9.82
19568;BMP280;9930;49.240;8.548;2023-12-20T05:32:09;100660.31;;;9.78
19568;BMP280;9930;49.240;8.548;2023-12-20T05:34:36;100654.28;;;9.76
19568;BMP280;9930;49.240;8.548;2023-12-20T05:37:02;100658.78;;;9.82
19568;BMP280;9930;49.240;8.548;2023-12-20T05:39:28;100652.47;;;9.73
19568;BMP280;9930;49.240;8.548;2023-12-20T05:41:58;100674.88;;;9.81
19568;BMP280;9930;49.240;8.548;2023-12-20T05:44:28;100676.47;;;9.79
19568;BMP280;9930;49.240;8.548;2023-12-20T05:46:54;100666.00;;;9.72
19568;BMP280;9930;49.240;8.548;2023-12-20T05:49:22;100669.44;;;9.73
19568;BMP280;9930;49.240;8.548;2023-12-20T05:51:49;100662.94;;;9.80
19568;BMP280;9930;49.240;8.548;2023-12-20T05:54:16;100672.25;;;9.79
19568;BMP280;9930;49.240;8.548;2023-12-20T05:56:42;100660.91;;;9.72
19568;BMP280;9930;49.240;8.548;2023-12-20T05:59:08;100671.38;;;9.79
19568;BMP280;9930;49.240;8.548;2023-12-20T06:01:33;100684.19;;;9.80
19568;BMP280;9930;49.240;8.548;2023-12-20T06:03:59;100689.06;;;9.76
19568;BMP280;9930;49.240;8.548;2023-12-20T06:06:27;100701.22;;;9.81
19568;BMP280;9930;49.240;8.548;2023-12-20T06:08:53;100696.78;;;9.77
19568;BMP280;9930;49.240;8.548;2023-12-20T06:11:21;100705.16;;;9.74
19568;BMP280;9930;49.240;8.548;2023-12-20T06:13:49;100716.50;;;9.81
19568;BMP280;9930;49.240;8.548;2023-12-20T06:16:18;100723.25;;;9.81
19568;BMP280;9930;49.240;8.548;2023-12-20T06:18:43;100726.69;;;9.81
19568;BMP280;9930;49.240;8.548;2023-12-20T06:21:09;100728.34;;;9.81
19568;BMP280;9930;49.240;8.548;2023-12-20T06:23:40;100732.66;;;9.82
19568;BMP280;9930;49.240;8.548;2023-12-20T06:26:08;100723.84;;;9.75
19568;BMP280;9930;49.240;8.548;2023-12-20T06:28:35;100730.84;;;9.79
19568;BMP280;9930;49.240;8.548;2023-12-20T06:31:04;100746.31;;;9.84
19568;BMP280;9930;49.240;8.548;2023-12-20T06:33:33;100727.28;;;9.76
19568;BMP280;9930;49.240;8.548;2023-12-20T06:35:58;100739.28;;;9.78
19568;BMP280;9930;49.240;8.548;2023-12-20T06:38:29;100737.53;;;9.77
19568;BMP280;9930;49.240;8.548;2023-12-20T06:40:57;100740.81;;;9.74
19568;BMP280;9930;49.240;8.548;2023-12-20T06:43:24;100744.09;;;9.72
19568;BMP280;9930;49.240;8.548;2023-12-20T06:45:50;100747.38;;;9.69
19568;BMP280;9930;49.240;8.548;2023-12-20T06:48:16;100748.25;;;9.70
19568;BMP280;9930;49.240;8.548;2023-12-20T06:50:44;100757.63;;;9.71
19568;BMP280;9930;49.240;8.548;2023-12-20T06:53:10;100768.69;;;9.71
19568;BMP280;9930;49.240;8.548;2023-12-20T06:55:38;100770.44;;;9.72
19568;BMP280;9930;49.240;8.548;2023-12-20T06:58:03;100749.69;;;9.65
19568;BMP280;9930;49.240;8.548;2023-12-20T07:00:30;100764.63;;;9.75
19568;BMP280;9930;49.240;8.548;2023-12-20T07:02:56;100769.50;;;9.70
19568;BMP280;9930;49.240;8.548;2023-12-20T07:05:24;100777.50;;;9.78
19568;BMP280;9930;49.240;8.548;2023-12-20T07:07:50;100765.34;;;9.72
19568;BMP280;9930;49.240;8.548;2023-12-20T07:10:16;100778.44;;;9.80
19568;BMP280;9930;49.240;8.548;2023-12-20T07:12:42;100786.22;;;9.83
19568;BMP280;9930;49.240;8.548;2023-12-20T07:15:08;100779.38;;;9.82
19568;BMP280;9930;49.240;8.548;2023-12-20T07:17:38;100771.66;;;9.81
19568;BMP280;9930;49.240;8.548;2023-12-20T07:20:07;100788.84;;;9.85
19568;BMP280;9930;49.240;8.548;2023-12-20T07:22:36;100790.59;;;9.86
19568;BMP280;9930;49.240;8.548;2023-12-20T07:25:02;100789.72;;;9.85
19568;BMP280;9930;49.240;8.548;2023-12-20T07:27:29;100788.84;;;9.85
19568;BMP280;9930;49.240;8.548;2023-12-20T07:29:55;100768.69;;;9.71
19568;BMP280;9930;49.240;8.548;2023-12-20T07:32:23;100785.94;;;9.77
19568;BMP280;9930;49.240;8.548;2023-12-20T07:34:49;100790.09;;;9.75
19568;BMP280;9930;49.240;8.548;2023-12-20T07:37:15;100793.22;;;9.69
19568;BMP280;9930;49.240;8.548;2023-12-20T07:39:41;100796.41;;;9.65
19568;BMP280;9930;49.240;8.548;2023-12-20T07:42:08;100797.81;;;9.59
19568;BMP280;9930;49.240;8.548;2023-12-20T07:44:35;100783.41;;;9.41
19568;BMP280;9930;49.240;8.548;2023-12-20T07:47:04;100791.91;;;9.42
19568;BMP280;9930;49.240;8.548;2023-12-20T07:49:31;100802.09;;;9.42
19568;BMP280;9930;49.240;8.548;2023-12-20T07:51:57;100788.91;;;9.33
19568;BMP280;9930;49.240;8.548;2023-12-20T07:54:23;100797.34;;;9.32
19568;BMP280;9930;49.240;8.548;2023-12-20T07:56:49;100806.44;;;9.27
19568;BMP280;9930;49.240;8.548;2023-12-20T07:59:15;100807.16;;;9.24
19568;BMP280;9930;49.240;8.548;2023-12-20T08:01:40;100781.59;;;9.05
19568;BMP280;9930;49.240;8.548;2023-12-20T08:04:07;100800.44;;;9.08
19568;BMP280;9930;49.240;8.548;2023-12-20T08:06:35;100821.09;;;9.15
19568;BMP280;9930;49.240;8.548;2023-12-20T08:09:01;100812.28;;;9.08
19568;BMP280;9930;49.240;8.548;2023-12-20T08:11:28;100819.19;;;9.11
19568;BMP280;9930;49.240;8.548;2023-12-20T08:13:55;100799.25;;;9.02
19568;BMP280;9930;49.240;8.548;2023-12-20T08:16:21;100822.53;;;9.09
19568;BMP280;9930;49.240;8.548;2023-12-20T08:18:53;100820.78;;;9.08
19568;BMP280;9930;49.240;8.548;2023-12-20T08:21:19;100822.53;;;9.09
19568;BMP280;9930;49.240;8.548;2023-12-20T08:23:50;100826.75;;;9.09
19568;BMP280;9930;49.240;8.548;2023-12-20T08:26:19;100825.81;;;9.07
19568;BMP280;9930;49.240;8.548;2023-12-20T08:28:48;100831.13;;;9.12
19568;BMP280;9930;49.240;8.548;2023-12-20T08:31:15;100826.84;;;9.11
19568;BMP280;9930;49.240;8.548;2023-12-20T08:33:45;100818.31;;;9.10
19568;BMP280;9930;49.240;8.548;2023-12-20T08:36:12;100828.50;;;9.10
19568;BMP280;9930;49.240;8.548;2023-12-20T08:38:39;100838.28;;;9.19
19568;BMP280;9930;49.240;8.548;2023-12-20T08:41:07;100849.47;;;9.22
19568;BMP280;9930;49.240;8.548;2023-12-20T08:43:34;100832.31;;;9.18
19568;BMP280;9930;49.240;8.548;2023-12-20T08:46:02;100841.44;;;9.31
19568;BMP280;9930;49.240;8.548;2023-12-20T08:48:29;100836.63;;;9.37
19568;BMP280;9930;49.240;8.548;2023-12-20T08:50:57;100841.06;;;9.41
19568;BMP280;9930;49.240;8.548;2023-12-20T08:53:22;100849.88;;;9.48
19568;BMP280;9930;49.240;8.548;2023-12-20T08:55:49;100845.88;;;9.53
19568;BMP280;9930;49.240;8.548;2023-12-20T08:58:14;100835.78;;;9.54
19568;BMP280;9930;49.240;8.548;2023-12-20T09:00:40;100848.22;;;9.66
19568;BMP280;9930;49.240;8.548;2023-12-20T09:03:06;100839.72;;;9.65
19568;BMP280;9930;49.240;8.548;2023-12-20T09:05:32;100839.22;;;9.72
19568;BMP280;9930;49.240;8.548;2023-12-20T09:08:01;100833.25;;;9.72
19568;BMP280;9930;49.240;8.548;2023-12-20T09:10:29;100844.75;;;9.82
19568;BMP280;9930;49.240;8.548;2023-12-20T09:12:55;100853.47;;;9.87
19568;BMP280;9930;49.240;8.548;2023-12-20T09:15:25;100838.84;;;9.83
19568;BMP280;9930;49.240;8.548;2023-12-20T09:17:54;100842.63;;;9.91
19568;BMP280;9930;49.240;8.548;2023-12-20T09:20:20;100846.03;;;9.91
19568;BMP280;9930;49.240;8.548;2023-12-20T09:22:49;100847.28;;;9.99
19568;BMP280;9930;49.240;8.548;2023-12-20T09:25:18;100836.06;;;9.96
19568;BMP280;9930;49.240;8.548;2023-12-20T09:27:47;100845.00;;;10.05
19568;BMP280;9930;49.240;8.548;2023-12-20T09:30:13;100821.44;;;9.92
19568;BMP280;9930;49.240;8.548;2023-12-20T09:32:42;100846.16;;;10.12
19568;BMP280;9930;49.240;8.548;2023-12-20T09:35:08;100854.03;;;10.17
19568;BMP280;9930;49.240;8.548;2023-12-20T09:37:35;100846.47;;;10.18
19568;BMP280;9930;49.240;8.548;2023-12-20T09:40:03;100851.81;;;10.23
19568;BMP280;9930;49.240;8.548;2023-12-20T09:42:46;100842.41;;;10.22
19568;BMP280;9930;49.240;8.548;2023-12-20T09:45:15;100855.50;;;10.29
19568;BMP280;9930;49.240;8.548;2023-12-20T09:47:43;100862.63;;;10.36
19568;BMP280;9930;49.240;8.548;2023-12-20T09:50:12;100855.72;;;10.34
19568;BMP280;9930;49.240;8.548;2023-12-20T09:52:40;100856.97;;;10.44
19568;BMP280;9930;49.240;8.548;2023-12-20T09:55:12;100866.56;;;10.49
19568;BMP280;9930;49.240;8.548;2023-12-20T09:57:39;100857.09;;;10.47
19568;BMP280;9930;49.240;8.548;2023-12-20T10:00:06;100851.34;;;10.51
19568;BMP280;9930;49.240;8.548;2023-12-20T10:02:42;100851.53;;;10.55
19568;BMP280;9930;49.240;8.548;2023-12-20T10:05:16;100872.34;;;10.64
19568;BMP280;9930;49.240;8.548;2023-12-20T10:07:46;100870.75;;;10.66
19568;BMP280;9930;49.240;8.548;2023-12-20T10:10:13;100861.56;;;10.70
19568;BMP280;9930;49.240;8.548;2023-12-20T10:13:08;100857.53;;;10.75
19568;BMP280;9930;49.240;8.548;2023-12-20T10:15:38;100853.56;;;10.82
19568;BMP280;9930;49.240;8.548;2023-12-20T10:18:05;100846.16;;;10.88
19568;BMP280;9930;49.240;8.548;2023-12-20T10:20:35;100859.25;;;10.95
19568;BMP280;9930;49.240;8.548;2023-12-20T10:23:04;100850.78;;;10.96
19568;BMP280;9930;49.240;8.548;2023-12-20T10:25:30;100865.69;;;11.07
19568;BMP280;9930;49.240;8.548;2023-12-20T10:28:16;100863.28;;;11.10
19568;BMP280;9930;49.240;8.548;2023-12-20T10:30:48;100829.63;;;10.99
19568;BMP280;9930;49.240;8.548;2023-12-20T10:33:23;100857.63;;;11.17
19568;BMP280;9930;49.240;8.548;2023-12-20T10:35:49;100850.84;;;11.17
19568;BMP280;9930;49.240;8.548;2023-12-20T10:38:15;100833.91;;;11.19
19568;BMP280;9930;49.240;8.548;2023-12-20T10:40:46;100837.59;;;11.26
19568;BMP280;9930;49.240;8.548;2023-12-20T10:43:12;100835.28;;;11.32
19568;BMP280;9930;49.240;8.548;2023-12-20T10:45:42;100817.53;;;11.35
19568;BMP280;9930;49.240;8.548;2023-12-20T10:48:11;100822.19;;;11.45
19568;BMP280;9930;49.240;8.548;2023-12-20T10:50:38;100826.00;;;11.55
19568;BMP280;9930;49.240;8.548;2023-12-20T10:53:07;100815.03;;;11.57
19568;BMP280;9930;49.240;8.548;2023-12-20T10:55:35;100824.06;;;11.70
19568;BMP280;9930;49.240;8.548;2023-12-20T10:58:13;100819.88;;;11.72
19568;BMP280;9930;49.240;8.548;2023-12-20T11:00:40;100821.63;;;11.73
19568;BMP280;9930;49.240;8.548;2023-12-20T11:03:09;100814.59;;;11.67
19568;BMP280;9930;49.240;8.548;2023-12-20T11:06:12;100820.75;;;11.73
19568;BMP280;9930;49.240;8.548;2023-12-20T11:08:50;100813.59;;;11.64
19568;BMP280;9930;49.240;8.548;2023-12-20T11:11:30;100820.44;;;11.65
19568;BMP280;9930;49.240;8.548;2023-12-20T11:14:06;100823.69;;;11.61
19568;BMP280;9930;49.240;8.548;2023-12-20T11:16:40;100819.22;;;11.55
19568;BMP280;9930;49.240;8.548;2023-12-20T11:19:07;100805.38;;;11.50
19568;BMP280;9930;49.240;8.548;2023-12-20T11:21:33;100810.50;;;11.50
19568;BMP280;9930;49.240;8.548;2023-12-20T11:24:00;100803.63;;;11.49
19568;BMP280;9930;49.240;8.548;2023-12-20T11:26:30;100801.81;;;11.47
19568;BMP280;9930;49.240;8.548;2023-12-20T11:34:59;100801.34;;;11.34
19568;BMP280;9930;49.240;8.548;2023-12-20T11:37:37;100784.78;;;11.25
19568;BMP280;9930;49.240;8.548;2023-12-20T11:42:48;100790.94;;;11.30
19568;BMP280;9930;49.240;8.548;2023-12-20T11:45:17;100791.00;;;11.31
19568;BMP280;9930;49.240;8.548;2023-12-20T11:47:48;100784.78;;;11.25
19568;BMP280;9930;49.240;8.548;2023-12-20T11:50:16;100793.50;;;11.30
19568;BMP280;9930;49.240;8.548;2023-12-20T11:52:45;100797.72;;;11.29
19568;BMP280;9930;49.240;8.548;2023-12-20T11:55:13;100791.81;;;11.30
19568;BMP280;9930;49.240;8.548;2023-12-20T11:57:39;100783.09;;;11.25
19568;BMP280;9930;49.240;8.548;2023-12-20T12:00:10;100797.72;;;11.29
19568;BMP280;9930;49.240;8.548;2023-12-20T12:02:37;100797.84;;;11.32
19568;BMP280;9930;49.240;8.548;2023-12-20T12:05:03;100787.56;;;11.31
19568;BMP280;9930;49.240;8.548;2023-12-20T12:07:34;100769.44;;;11.25
19568;BMP280;9930;49.240;8.548;2023-12-20T12:10:00;100781.97;;;11.40
19568;BMP280;9930;49.240;8.548;2023-12-20T12:12:29;100775.06;;;11.37
19568;BMP280;9930;49.240;8.548;2023-12-20T12:14:56;100782.84;;;11.40
19568;BMP280;9930;49.240;8.548;2023-12-20T12:17:23;100786.19;;;11.39
19568;BMP280;9930;49.240;8.548;2023-12-20T12:19:49;100774.81;;;11.31
19568;BMP280;9930;49.240;8.548;2023-12-20T12:22:15;100780.16;;;11.37
19568;BMP280;9930;49.240;8.548;2023-12-20T12:24:47;100786.06;;;11.36
19568;BMP280;9930;49.240;8.548;2023-12-20T12:27:13;100780.91;;;11.34
19568;BMP280;9930;49.240;8.548;2023-12-20T12:29:39;100768.75;;;11.29
19568;BMP280;9930;49.240;8.548;2023-12-20T12:32:09;100766.16;;;11.27
19568;BMP280;9930;49.240;8.548;2023-12-20T12:34:36;100758.31;;;11.23
19568;BMP280;9930;49.240;8.548;2023-12-20T12:37:04;100754.00;;;11.22
19568;BMP280;9930;49.240;8.548;2023-12-20T12:39:32;100766.09;;;11.26
19568;BMP280;9930;49.240;8.548;2023-12-20T12:41:58;100773.69;;;11.24
19568;BMP280;9930;49.240;8.548;2023-12-20T12:44:23;100761.47;;;11.17
19568;BMP280;9930;49.240;8.548;2023-12-20T12:46:53;100783.03;;;11.24
19568;BMP280;9930;49.240;8.548;2023-12-20T12:49:22;100773.31;;;11.15
19568;BMP280;9930;49.240;8.548;2023-12-20T12:51:51;100780.28;;;11.19
19568;BMP280;9930;49.240;8.548;2023-12-20T12:54:16;100775.94;;;11.17
19568;BMP280;9930;49.240;8.548;2023-12-20T12:56:44;100778.47;;;11.17
19568;BMP280;9930;49.240;8.548;2023-12-20T12:59:13;100770.44;;;11.08
19568;BMP280;9930;49.240;8.548;2023-12-20T13:01:39;100781.53;;;11.08
19568;BMP280;9930;49.240;8.548;2023-12-20T13:04:07;100784.88;;;11.07
19568;BMP280;9930;49.240;8.548;2023-12-20T13:06:39;100793.53;;;11.11
19568;BMP280;9930;49.240;8.548;2023-12-20T13:09:07;100795.16;;;11.09
19568;BMP280;9930;49.240;8.548;2023-12-20T13:11:37;100791.81;;;11.10
19568;BMP280;9930;49.240;8.548;2023-12-20T13:14:03;100784.06;;;11.08
19568;BMP280;9930;49.240;8.548;2023-12-20T13:16:29;100789.13;;;11.07
19568;BMP280;9930;49.240;8.548;2023-12-20T13:18:55;100760.47;;;10.93
19568;BMP280;9930;49.240;8.548;2023-12-20T13:21:22;100774.34;;;10.99
19568;BMP280;9930;49.240;8.548;2023-12-20T13:23:48;100764.84;;;10.95
19568;BMP280;9930;49.240;8.548;2023-12-20T13:26:19;100781.28;;;11.02
19568;BMP280;9930;49.240;8.548;2023-12-20T13:28:44;100776.97;;;11.01
19568;BMP280;9930;49.240;8.548;2023-12-20T13:31:10;100765.81;;;10.99
19568;BMP280;9930;49.240;8.548;2023-12-20T13:33:41;100759.78;;;10.97
19568;BMP280;9930;49.240;8.548;2023-12-20T13:36:10;100754.63;;;10.95
19568;BMP280;9930;49.240;8.548;2023-12-20T13:38:37;100746.97;;;10.95
19568;BMP280;9930;49.240;8.548;2023-12-20T13:41:07;100730.72;;;10.93
19568;BMP280;9930;49.240;8.548;2023-12-20T13:43:35;100728.97;;;10.92
19568;BMP280;9930;49.240;8.548;2023-12-20T13:46:07;100718.53;;;10.86
19568;BMP280;9930;49.240;8.548;2023-12-20T13:48:39;100722.94;;;10.90
19568;BMP280;9930;49.240;8.548;2023-12-20T13:51:06;100720.38;;;10.90
19568;BMP280;9930;49.240;8.548;2023-12-20T13:53:32;100725.50;;;10.90
19568;BMP280;9930;49.240;8.548;2023-12-20T13:56:03;100728.91;;;10.91
19568;BMP280;9930;49.240;8.548;2023-12-20T13:58:31;100724.69;;;10.91
19568;BMP280;9930;49.240;8.548;2023-12-20T14:00:56;100716.16;;;10.91
19568;BMP280;9930;49.240;8.548;2023-12-20T14:03:23;100719.50;;;10.90
19568;BMP280;9930;49.240;8.548;2023-12-20T14:05:51;100727.16;;;10.90
19568;BMP280;9930;49.240;8.548;2023-12-20T14:08:17;100717.78;;;10.89
19568;BMP280;9930;49.240;8.548;2023-12-20T14:10:43;100703.03;;;10.82
19568;BMP280;9930;49.240;8.548;2023-12-20T14:13:11;100696.28;;;10.84
19568;BMP280;9930;49.240;8.548;2023-12-20T14:15:38;100698.97;;;10.87
19568;BMP280;9930;49.240;8.548;2023-12-20T14:18:06;100695.38;;;10.82
19568;BMP280;9930;49.240;8.548;2023-12-20T14:20:36;100706.63;;;10.87
19568;BMP280;9930;49.240;8.548;2023-12-20T14:23:05;100704.81;;;10.84
19568;BMP280;9930;49.240;8.548;2023-12-20T14:25:33;100692.88;;;10.83
19568;BMP280;9930;49.240;8.548;2023-12-20T14:27:58;100704.81;;;10.84